Larkspur — C6BR6 — position and weather

sailwx.info

Track history (hours):
 
Tides and Currents Weather Stations Pressure Air Temp Water Temp Dewpoint Dewpoint Depression Visibility Wind Speed Wind Dir Waves Ship Positions

Larkspur

Operator: Transeuropa Lines

Last reported at 2017-Feb-23 12:15 UTC. Time now 2017-Mar-28 19:46 UTC.
Position N 09°13' W 079°56'.
Warning: this ship's position is 33 days out of date.

Length 225 m; draft 11.3 m.

Type: Tanker. MMSI: 311000344.

Date/timePositionNaut miles runAvg speedWind from/ knotsBaromVisibWave heightAir tempDewpointWater temp
2017-Feb-23 12:15N 09°13' W 079°56'4 1.9
2017-Feb-23 10:20N 09°16' W 079°55'0 0.3
2017-Feb-23 09:33N 09°17' W 079°55'1 1.1
2017-Feb-23 08:33N 09°18' W 079°55'6 5.9
2017-Feb-23 07:33N 09°23' W 079°55'4 4.2
2017-Feb-23 06:33N 09°27' W 079°58'0 0.0
2017-Feb-23 05:04N 09°27' W 079°58'0 0.0
2017-Feb-23 04:28N 09°27' W 079°58'0 0.0
2017-Feb-23 03:19N 09°27' W 079°58'0 0.0
2017-Feb-23 02:22N 09°27' W 079°58'0 0.0
2017-Feb-23 01:25N 09°27' W 079°58'0 0.0
2017-Feb-23 00:28N 09°27' W 079°58'0 0.0
2017-Feb-22 23:04N 09°27' W 079°58'0 0.0
2017-Feb-22 22:16N 09°27' W 079°58'0 0.0
2017-Feb-22 21:31N 09°27' W 079°58'0 0.0
2017-Feb-22 18:25N 09°27' W 079°58'0 0.0
2017-Feb-22 17:19N 09°27' W 079°58'0 0.0
2017-Feb-22 16:31N 09°27' W 079°58'0 0.0
2017-Feb-22 15:28N 09°27' W 079°58'0 0.0
2017-Feb-22 13:28N 09°27' W 079°58'0 0.0
2017-Feb-22 12:31N 09°27' W 079°58'0 0.0
2017-Feb-22 11:31N 09°27' W 079°58'0 0.0
2017-Feb-22 10:31N 09°27' W 079°58'0 0.0
2017-Feb-22 09:22N 09°27' W 079°58'0 0.0
2017-Feb-22 08:31N 09°27' W 079°58'0 0.0
2017-Feb-22 07:31N 09°27' W 079°58'0 0.0
2017-Feb-22 06:22N 09°27' W 079°58'0 0.0
2017-Feb-22 05:28N 09°27' W 079°58'0 0.0
2017-Feb-22 04:31N 09°27' W 079°58'0 0.1
2017-Feb-22 03:31N 09°27' W 079°58'0 0.0
2017-Feb-22 02:19N 09°27' W 079°58'0 0.0
2017-Feb-22 01:31N 09°27' W 079°58'0 0.0
2017-Feb-22 00:21N 09°27' W 079°58'0 0.1
2017-Feb-21 23:31N 09°27' W 079°58'0 0.1
2017-Feb-21 22:31N 09°27' W 079°58'0 0.0
2017-Feb-21 21:28N 09°27' W 079°58'0 0.1
2017-Feb-21 20:31N 09°27' W 079°58'  
Track history (hours):
 
Tides and Currents Weather Stations Pressure Air Temp Water Temp Dewpoint Dewpoint Depression Visibility Wind Speed Wind Dir Waves Ship Positions

Larkspur

Operator: Transeuropa Lines

Last reported at 2017-Feb-23 12:15 UTC. Time now 2017-Mar-28 19:46 UTC.
Position N 09°13' W 079°56'.
Warning: this ship's position is 33 days out of date.

Length 225 m; draft 11.3 m.

Type: Tanker. MMSI: 311000344.

Date/timePositionNaut miles runAvg speedWind from/ knotsBaromVisibWave heightAir tempDewpointWater temp
2017-Feb-23 12:15N 09°13' W 079°56'4 1.9
2017-Feb-23 10:20N 09°16' W 079°55'0 0.3
2017-Feb-23 09:33N 09°17' W 079°55'1 1.1
2017-Feb-23 08:33N 09°18' W 079°55'6 5.9
2017-Feb-23 07:33N 09°23' W 079°55'4 4.2
2017-Feb-23 06:33N 09°27' W 079°58'0 0.0
2017-Feb-23 05:04N 09°27' W 079°58'0 0.0
2017-Feb-23 04:28N 09°27' W 079°58'0 0.0
2017-Feb-23 03:19N 09°27' W 079°58'0 0.0
2017-Feb-23 02:22N 09°27' W 079°58'0 0.0
2017-Feb-23 01:25N 09°27' W 079°58'0 0.0
2017-Feb-23 00:28N 09°27' W 079°58'0 0.0
2017-Feb-22 23:04N 09°27' W 079°58'0 0.0
2017-Feb-22 22:16N 09°27' W 079°58'0 0.0
2017-Feb-22 21:31N 09°27' W 079°58'0 0.0
2017-Feb-22 18:25N 09°27' W 079°58'0 0.0
2017-Feb-22 17:19N 09°27' W 079°58'0 0.0
2017-Feb-22 16:31N 09°27' W 079°58'0 0.0
2017-Feb-22 15:28N 09°27' W 079°58'0 0.0
2017-Feb-22 13:28N 09°27' W 079°58'0 0.0
2017-Feb-22 12:31N 09°27' W 079°58'0 0.0
2017-Feb-22 11:31N 09°27' W 079°58'0 0.0
2017-Feb-22 10:31N 09°27' W 079°58'0 0.0
2017-Feb-22 09:22N 09°27' W 079°58'0 0.0
2017-Feb-22 08:31N 09°27' W 079°58'0 0.0
2017-Feb-22 07:31N 09°27' W 079°58'0 0.0
2017-Feb-22 06:22N 09°27' W 079°58'0 0.0
2017-Feb-22 05:28N 09°27' W 079°58'0 0.0
2017-Feb-22 04:31N 09°27' W 079°58'0 0.1
2017-Feb-22 03:31N 09°27' W 079°58'0 0.0
2017-Feb-22 02:19N 09°27' W 079°58'0 0.0
2017-Feb-22 01:31N 09°27' W 079°58'0 0.0
2017-Feb-22 00:21N 09°27' W 079°58'0 0.1
2017-Feb-21 23:31N 09°27' W 079°58'0 0.1
2017-Feb-21 22:31N 09°27' W 079°58'0 0.0
2017-Feb-21 21:28N 09°27' W 079°58'0 0.1
2017-Feb-21 20:31N 09°27' W 079°58'  

Dump ship's entire track history